createdAt,value
2018-12-21T00:00:19.584Z,86.65
2018-12-21T00:02:50.511Z,86.80
2018-12-21T00:05:21.442Z,87.39
2018-12-21T00:07:52.433Z,86.79
2018-12-21T00:10:22.630Z,86.72
2018-12-21T00:12:52.859Z,86.39
2018-12-21T00:15:23.597Z,86.33
2018-12-21T00:17:53.817Z,86.62
2018-12-21T00:20:24.196Z,86.49
2018-12-21T00:22:54.509Z,86.43
2018-12-21T00:25:25.787Z,86.03
2018-12-21T00:27:56.369Z,86.13
2018-12-21T00:30:26.315Z,86.08
2018-12-21T00:33:02.648Z,85.66
2018-12-21T00:35:37.925Z,85.97
2018-12-21T00:38:13.783Z,86.37
2018-12-21T00:40:49.975Z,86.19
2018-12-21T00:43:28.054Z,86.22
2018-12-21T00:46:04.443Z,86.17
2018-12-21T00:48:34.665Z,85.76
2018-12-21T00:51:05.260Z,86.09
2018-12-21T00:53:35.308Z,86.49
2018-12-21T00:56:05.557Z,86.10
2018-12-21T00:58:36.472Z,86.35
2018-12-21T01:01:07.026Z,86.41
2018-12-21T01:03:38.571Z,86.81
2018-12-21T01:06:09.414Z,87.12
2018-12-21T01:08:39.605Z,86.99
2018-12-21T01:11:09.930Z,86.96
2018-12-21T01:13:40.104Z,86.91
2018-12-21T01:16:10.406Z,86.60
2018-12-21T01:18:40.853Z,86.53
2018-12-21T01:21:12.698Z,86.32
2018-12-21T01:23:43.303Z,86.06
2018-12-21T01:26:13.405Z,86.00
2018-12-21T01:28:43.655Z,86.00
2018-12-21T01:31:13.854Z,86.05
2018-12-21T01:33:44.722Z,86.24
2018-12-21T01:36:15.667Z,85.78
2018-12-21T01:38:45.782Z,85.50
2018-12-21T01:41:16.020Z,85.41
2018-12-21T01:43:46.822Z,84.10
2018-12-21T01:46:17.107Z,83.65
2018-12-21T01:48:49.095Z,83.34
2018-12-21T01:51:19.353Z,82.87
2018-12-21T01:53:50.158Z,82.95
2018-12-21T01:56:20.922Z,82.27
2018-12-21T01:58:51.257Z,82.46
2018-12-21T02:01:21.274Z,81.97
2018-12-21T02:03:51.471Z,81.89
2018-12-21T02:06:22.060Z,81.99
2018-12-21T02:08:53.034Z,81.99
2018-12-21T02:11:23.322Z,82.03
2018-12-21T02:13:53.396Z,81.76
2018-12-21T02:16:24.533Z,82.40
2018-12-21T02:18:55.347Z,83.37
2018-12-21T02:21:26.108Z,83.69
2018-12-21T02:23:56.149Z,84.15
2018-12-21T02:26:26.246Z,84.96
2018-12-21T02:28:56.748Z,85.31
2018-12-21T02:31:26.965Z,85.65
2018-12-21T02:33:57.340Z,86.17
2018-12-21T02:36:28.047Z,86.55
2018-12-21T02:38:58.127Z,86.75
2018-12-21T02:41:28.282Z,87.72
2018-12-21T02:43:58.859Z,88.53
2018-12-21T02:46:29.577Z,88.19
2018-12-21T02:48:59.846Z,87.87
2018-12-21T02:51:30.635Z,87.71
2018-12-21T02:54:01.502Z,88.45
2018-12-21T02:56:32.336Z,89.03
2018-12-21T02:59:02.382Z,88.58
2018-12-21T03:01:33.893Z,88.85
2018-12-21T03:04:03.949Z,88.90
2018-12-21T03:06:35.016Z,89.06
2018-12-21T03:09:08.552Z,89.56
2018-12-21T03:11:39.405Z,89.67
2018-12-21T03:14:09.536Z,89.54
2018-12-21T03:16:40.290Z,90.10
2018-12-21T03:19:11.074Z,89.56
2018-12-21T03:21:42.043Z,89.59
2018-12-21T03:24:13.004Z,89.60
2018-12-21T03:26:43.281Z,89.72
2018-12-21T03:29:13.374Z,90.04
2018-12-21T03:31:43.450Z,90.39
2018-12-21T03:34:13.687Z,90.55
2018-12-21T03:36:44.554Z,90.71
2018-12-21T03:39:14.678Z,90.83
2018-12-21T03:41:44.704Z,91.10
2018-12-21T03:44:14.998Z,91.09
2018-12-21T03:46:46.564Z,91.39
2018-12-21T03:49:16.827Z,90.92
2018-12-21T03:51:46.971Z,91.28
2018-12-21T03:54:18.490Z,91.17
2018-12-21T03:56:49.232Z,91.17
2018-12-21T03:59:19.258Z,91.67
2018-12-21T04:01:51.082Z,91.44
2018-12-21T04:04:22.046Z,91.86
2018-12-21T04:06:52.147Z,91.81
2018-12-21T04:09:22.805Z,91.65
2018-12-21T04:11:53.281Z,91.65
2018-12-21T04:14:23.408Z,91.40
2018-12-21T04:16:54.008Z,90.72
2018-12-21T04:19:25.459Z,90.63
2018-12-21T04:21:55.616Z,90.80
2018-12-21T04:24:26.323Z,90.66
2018-12-21T04:26:56.346Z,90.54
2018-12-21T04:29:26.392Z,90.20
2018-12-21T04:31:57.235Z,90.48
2018-12-21T04:34:29.331Z,90.77
2018-12-21T04:36:59.558Z,90.50
2018-12-21T04:39:29.706Z,90.42
2018-12-21T04:42:00.786Z,89.87
2018-12-21T04:44:31.440Z,89.88
2018-12-21T04:47:02.122Z,89.82
2018-12-21T04:49:32.244Z,89.35
2018-12-21T04:52:03.063Z,88.76
2018-12-21T04:54:33.143Z,88.37
2018-12-21T04:57:04.763Z,88.86
2018-12-21T04:59:34.844Z,88.74
2018-12-21T05:02:05.130Z,88.45
2018-12-21T05:04:35.857Z,88.01
2018-12-21T05:07:12.217Z,88.14
2018-12-21T05:09:40.274Z,88.04
2018-12-21T05:12:10.589Z,87.55
2018-12-21T05:14:41.589Z,88.11
2018-12-21T05:17:12.627Z,87.74
2018-12-21T05:19:59.031Z,87.50
2018-12-21T05:22:29.042Z,87.69
2018-12-21T05:24:59.787Z,87.34
2018-12-21T05:27:32.160Z,87.62
2018-12-21T05:30:02.981Z,87.41
2018-12-21T05:32:33.235Z,87.40
2018-12-21T05:35:03.603Z,86.75
2018-12-21T05:37:34.303Z,86.73
2018-12-21T05:40:06.062Z,87.33
2018-12-21T05:42:36.270Z,86.97
2018-12-21T05:45:07.859Z,86.84
2018-12-21T05:47:38.558Z,86.91
2018-12-21T05:50:08.872Z,87.07
2018-12-21T05:52:38.971Z,86.82
2018-12-21T05:55:09.184Z,86.70
2018-12-21T05:57:39.478Z,86.89
2018-12-21T06:00:11.861Z,86.26
2018-12-21T06:02:42.326Z,86.29
2018-12-21T06:05:12.524Z,85.95
2018-12-21T06:07:42.687Z,86.39
2018-12-21T06:10:12.802Z,86.01
2018-12-21T06:12:43.802Z,85.95
2018-12-21T06:15:14.017Z,86.20
2018-12-21T06:17:44.853Z,86.03
2018-12-21T06:20:15.402Z,86.29
2018-12-21T06:22:47.163Z,86.10
2018-12-21T06:25:17.621Z,86.48
2018-12-21T06:27:47.755Z,86.58
2018-12-21T06:30:18.435Z,86.17
2018-12-21T06:32:49.093Z,85.88
2018-12-21T06:35:19.131Z,85.76
2018-12-21T06:37:49.348Z,85.84
2018-12-21T06:40:19.990Z,86.16
2018-12-21T06:42:50.891Z,86.32
2018-12-21T06:45:21.715Z,86.04
2018-12-21T06:47:51.955Z,86.38
2018-12-21T06:50:22.524Z,86.44
2018-12-21T06:52:52.697Z,85.92
2018-12-21T06:55:22.720Z,86.21
2018-12-21T06:57:53.773Z,86.07
2018-12-21T07:00:23.934Z,86.56
2018-12-21T07:02:54.166Z,86.70
2018-12-21T07:05:24.340Z,86.37
2018-12-21T07:07:54.587Z,86.32
2018-12-21T07:10:25.159Z,85.91
2018-12-21T07:12:55.937Z,85.69
2018-12-21T07:15:26.714Z,85.53
2018-12-21T07:17:56.851Z,85.58
2018-12-21T07:20:28.293Z,85.44
2018-12-21T07:22:59.202Z,85.14
2018-12-21T07:25:31.181Z,84.85
2018-12-21T07:28:03.053Z,84.30
2018-12-21T07:30:33.089Z,84.05
2018-12-21T07:33:03.844Z,84.61
2018-12-21T07:35:33.970Z,84.55
2018-12-21T07:38:04.654Z,84.04
2018-12-21T07:40:35.945Z,83.37
2018-12-21T07:43:06.046Z,82.99
2018-12-21T07:45:36.872Z,83.00
2018-12-21T07:48:07.039Z,82.73
2018-12-21T07:50:37.019Z,83.08
2018-12-21T07:53:07.630Z,83.15
2018-12-21T07:55:38.584Z,83.17
2018-12-21T07:58:09.643Z,83.90
2018-12-21T08:00:40.174Z,83.61
2018-12-21T08:03:10.496Z,83.47
2018-12-21T08:05:40.678Z,83.95
2018-12-21T08:08:11.501Z,83.28
2018-12-21T08:10:41.622Z,82.38
2018-12-21T08:13:13.566Z,82.55
2018-12-21T08:15:43.534Z,82.26
2018-12-21T08:18:13.874Z,82.38
2018-12-21T08:20:44.016Z,82.46
2018-12-21T08:23:14.754Z,82.56
2018-12-21T08:25:45.335Z,82.66
2018-12-21T08:28:15.531Z,82.20
2018-12-21T08:30:46.329Z,82.69
2018-12-21T08:33:16.369Z,82.82
2018-12-21T08:35:47.132Z,83.10
2018-12-21T08:38:17.798Z,82.80
2018-12-21T08:40:48.523Z,82.53
2018-12-21T08:43:19.572Z,82.81
2018-12-21T08:45:49.690Z,82.79
2018-12-21T08:48:20.208Z,82.52
2018-12-21T08:50:50.930Z,82.13
2018-12-21T08:53:21.182Z,82.04
2018-12-21T08:55:51.815Z,82.76
2018-12-21T08:58:23.075Z,82.78
2018-12-21T09:00:53.271Z,82.92
2018-12-21T09:03:23.332Z,83.96
2018-12-21T09:05:54.036Z,84.15
2018-12-21T09:08:25.225Z,84.83
2018-12-21T09:10:55.375Z,85.13
2018-12-21T09:13:25.966Z,85.29
2018-12-21T09:15:56.586Z,85.47
2018-12-21T09:18:26.737Z,86.32
2018-12-21T09:20:56.965Z,86.10
2018-12-21T09:23:27.048Z,85.82
2018-12-21T09:25:58.225Z,85.91
2018-12-21T09:28:42.779Z,86.34
2018-12-21T09:31:12.789Z,86.67
2018-12-21T09:33:42.916Z,86.62
2018-12-21T09:36:13.974Z,86.65
2018-12-21T09:38:44.781Z,86.74
2018-12-21T09:41:14.930Z,87.04
2018-12-21T09:43:45.597Z,86.25
2018-12-21T09:46:15.840Z,85.70
2018-12-21T09:48:46.084Z,85.83
2018-12-21T09:51:16.638Z,85.37
2018-12-21T09:53:46.793Z,85.02
2018-12-21T09:56:16.977Z,85.41
2018-12-21T09:58:48.050Z,85.52
2018-12-21T10:01:18.302Z,85.00
2018-12-21T10:03:49.318Z,85.17
2018-12-21T10:06:19.982Z,84.67
2018-12-21T10:08:50.116Z,84.60
2018-12-21T10:11:20.409Z,84.98
2018-12-21T10:13:50.730Z,84.92
2018-12-21T10:16:20.838Z,84.74
2018-12-21T10:18:51.043Z,84.46
2018-12-21T10:21:21.773Z,85.01
2018-12-21T10:23:53.279Z,84.43
2018-12-21T10:26:24.003Z,84.45
2018-12-21T10:28:54.632Z,84.31
2018-12-21T10:31:26.412Z,84.69
2018-12-21T10:33:58.069Z,84.90
2018-12-21T10:36:28.242Z,85.91
2018-12-21T10:38:59.035Z,85.67
2018-12-21T10:41:29.370Z,85.72
2018-12-21T10:43:59.447Z,86.15
2018-12-21T10:46:29.687Z,86.40
2018-12-21T10:49:00.467Z,86.14
2018-12-21T10:51:30.663Z,86.28
2018-12-21T10:54:00.690Z,87.21
2018-12-21T10:56:31.534Z,86.86
2018-12-21T10:59:01.762Z,87.15
2018-12-21T11:01:32.508Z,87.48
2018-12-21T11:04:02.951Z,87.74
2018-12-21T11:06:33.147Z,87.45
2018-12-21T11:09:04.135Z,87.80
2018-12-21T11:11:34.670Z,87.96
2018-12-21T11:14:05.277Z,87.83
2018-12-21T11:16:35.544Z,87.81
2018-12-21T11:19:06.221Z,88.23
2018-12-21T11:21:37.079Z,88.48
2018-12-21T11:24:07.920Z,88.49
2018-12-21T11:26:38.135Z,87.86
2018-12-21T11:29:09.796Z,87.94
2018-12-21T11:31:40.084Z,88.34
2018-12-21T11:34:11.464Z,87.49
2018-12-21T11:36:42.154Z,88.45
2018-12-21T11:39:12.401Z,87.81
2018-12-21T11:41:43.306Z,88.57
2018-12-21T11:44:13.975Z,88.54
2018-12-21T11:46:45.313Z,88.79
2018-12-21T11:49:16.089Z,88.75
2018-12-21T11:51:46.262Z,88.70
2018-12-21T11:54:17.277Z,88.55
2018-12-21T11:56:48.687Z,88.98
2018-12-21T11:59:18.880Z,89.49
2018-12-21T12:01:50.321Z,89.03
2018-12-21T12:04:20.923Z,89.05
2018-12-21T12:06:51.086Z,89.22
2018-12-21T12:09:21.432Z,89.01
2018-12-21T12:11:51.574Z,88.81
2018-12-21T12:14:21.848Z,88.81
2018-12-21T12:16:52.113Z,89.59
2018-12-21T12:19:23.225Z,89.55
2018-12-21T12:21:53.899Z,89.39
2018-12-21T12:24:24.563Z,89.70
2018-12-21T12:26:55.287Z,90.12
2018-12-21T12:29:25.467Z,89.86
2018-12-21T12:31:56.396Z,89.95
2018-12-21T12:34:27.499Z,89.70
2018-12-21T12:36:58.209Z,90.42
2018-12-21T12:39:28.899Z,90.29
2018-12-21T12:42:03.765Z,90.74
2018-12-21T12:44:33.980Z,91.31
2018-12-21T12:47:04.690Z,91.08
2018-12-21T12:49:35.348Z,91.79
2018-12-21T12:52:05.542Z,91.32
2018-12-21T12:54:36.117Z,91.35
2018-12-21T12:57:06.269Z,91.44
2018-12-21T12:59:37.217Z,91.17
2018-12-21T13:02:07.611Z,91.53
2018-12-21T13:04:37.769Z,91.28
2018-12-21T13:07:09.208Z,91.17
2018-12-21T13:09:39.855Z,91.54
2018-12-21T13:12:09.935Z,91.14
2018-12-21T13:14:41.909Z,91.24
2018-12-21T13:17:12.405Z,91.44
2018-12-21T13:19:43.347Z,91.48
2018-12-21T13:22:14.091Z,92.37
2018-12-21T13:24:45.663Z,92.39
2018-12-21T13:27:15.841Z,92.81
2018-12-21T13:29:46.988Z,92.48
2018-12-21T13:32:17.224Z,92.92
2018-12-21T13:34:48.258Z,93.27
2018-12-21T13:37:18.563Z,93.03
2018-12-21T13:39:49.177Z,93.42
2018-12-21T13:42:19.265Z,92.92
2018-12-21T13:44:49.536Z,92.63
2018-12-21T13:47:19.758Z,93.03
2018-12-21T13:49:50.387Z,93.09
2018-12-21T13:52:20.518Z,92.67
2018-12-21T13:54:51.242Z,92.93
2018-12-21T13:57:22.005Z,93.22
2018-12-21T13:59:53.141Z,92.86
2018-12-21T14:02:23.804Z,93.20
2018-12-21T14:04:53.800Z,92.89
2018-12-21T14:07:24.535Z,93.28
2018-12-21T14:09:54.866Z,93.48
2018-12-21T14:12:26.624Z,93.63
2018-12-21T14:14:56.890Z,93.49
2018-12-21T14:17:27.067Z,93.63
2018-12-21T14:19:57.149Z,93.87
2018-12-21T14:22:27.898Z,93.73
2018-12-21T14:24:57.987Z,94.21
2018-12-21T14:27:29.362Z,94.07
2018-12-21T14:29:59.538Z,93.40
2018-12-21T14:32:30.993Z,93.92
2018-12-21T14:35:02.855Z,94.18
2018-12-21T14:37:32.908Z,94.26
2018-12-21T14:40:02.993Z,94.19
2018-12-21T14:42:33.210Z,93.83
2018-12-21T14:45:03.363Z,93.89
2018-12-21T14:47:34.211Z,94.50
2018-12-21T14:50:05.446Z,94.46
2018-12-21T14:52:35.650Z,94.62
2018-12-21T14:55:06.722Z,94.67
2018-12-21T14:57:36.868Z,95.05
2018-12-21T15:00:12.778Z,94.48
2018-12-21T15:02:43.690Z,94.99
2018-12-21T15:05:13.777Z,94.42
2018-12-21T15:07:44.056Z,94.66
2018-12-21T15:10:14.215Z,94.91
2018-12-21T15:12:44.947Z,94.96
2018-12-21T15:15:15.314Z,94.71
2018-12-21T15:17:45.451Z,94.79
2018-12-21T15:20:15.650Z,94.31
2018-12-21T15:22:46.294Z,94.86
2018-12-21T15:25:16.888Z,94.54
2018-12-21T15:27:47.564Z,94.94
2018-12-21T15:30:17.824Z,94.65
2018-12-21T15:32:49.093Z,94.95
2018-12-21T15:35:19.162Z,94.79
2018-12-21T15:37:49.183Z,94.72
2018-12-21T15:40:19.262Z,94.28
2018-12-21T15:42:49.445Z,94.17
2018-12-21T15:45:20.344Z,94.48
2018-12-21T15:47:51.190Z,94.76
2018-12-21T15:50:21.408Z,94.38
2018-12-21T15:52:51.860Z,93.65
2018-12-21T15:55:23.370Z,93.76
2018-12-21T15:57:54.214Z,94.38
2018-12-21T16:00:24.867Z,93.85
2018-12-21T16:02:57.013Z,93.81
2018-12-21T16:05:28.011Z,94.00
2018-12-21T16:07:59.229Z,93.76
2018-12-21T16:10:29.781Z,93.53
2018-12-21T16:13:01.036Z,92.98
2018-12-21T16:15:31.624Z,93.12
2018-12-21T16:18:01.965Z,93.11
2018-12-21T16:20:33.186Z,92.21
2018-12-21T16:23:05.192Z,92.20
2018-12-21T16:25:35.196Z,92.68
2018-12-21T16:28:06.010Z,92.67
2018-12-21T16:30:36.175Z,92.82
2018-12-21T16:33:06.233Z,92.33
2018-12-21T16:35:36.447Z,91.95
2018-12-21T16:38:06.738Z,91.14
2018-12-21T16:40:37.506Z,90.20
2018-12-21T16:43:09.152Z,88.19
2018-12-21T16:45:39.940Z,87.85
2018-12-21T16:48:11.121Z,85.80
2018-12-21T16:50:41.961Z,85.33
2018-12-21T16:53:12.156Z,84.25
2018-12-21T16:55:42.861Z,83.49
2018-12-21T16:58:14.010Z,83.15
2018-12-21T17:00:44.014Z,82.99
2018-12-21T17:03:15.701Z,82.28
2018-12-21T17:05:46.109Z,82.15
2018-12-21T17:08:16.832Z,80.29
2018-12-21T17:10:47.891Z,80.53
2018-12-21T17:13:17.988Z,79.34
2018-12-21T17:15:49.442Z,79.80
2018-12-21T17:18:21.339Z,80.50
2018-12-21T17:20:51.524Z,79.62
2018-12-21T17:23:22.796Z,79.83
2018-12-21T17:25:52.938Z,79.54
2018-12-21T17:28:23.341Z,80.14
2018-12-21T17:30:53.369Z,78.87
2018-12-21T17:33:23.456Z,78.78
2018-12-21T17:35:53.620Z,77.56
2018-12-21T17:38:23.786Z,78.39
2018-12-21T17:40:54.526Z,77.45
2018-12-21T17:43:25.942Z,76.70
2018-12-21T17:45:56.897Z,76.92
2018-12-21T17:48:27.106Z,75.74
2018-12-21T17:50:58.047Z,76.17
2018-12-21T17:53:28.993Z,75.31
2018-12-21T17:55:58.990Z,74.86
2018-12-21T17:58:29.205Z,74.30
2018-12-21T18:01:00.521Z,74.21
2018-12-21T18:03:44.499Z,74.32
2018-12-21T18:06:14.570Z,74.12
2018-12-21T18:08:45.339Z,73.39
2018-12-21T18:11:16.643Z,74.22
2018-12-21T18:13:47.329Z,73.51
2018-12-21T18:16:17.627Z,74.03
2018-12-21T18:18:48.341Z,72.37
2018-12-21T18:21:18.497Z,71.81
2018-12-21T18:23:49.972Z,72.41
2018-12-21T18:26:22.574Z,71.69
2018-12-21T18:28:53.585Z,71.01
2018-12-21T18:31:33.876Z,71.40
2018-12-21T18:34:07.763Z,71.12
2018-12-21T18:36:38.551Z,69.96
2018-12-21T18:39:08.947Z,70.12
2018-12-21T18:41:39.773Z,69.96
2018-12-21T18:44:11.529Z,70.47
2018-12-21T18:46:41.776Z,69.66
2018-12-21T18:49:13.913Z,70.55
2018-12-21T18:51:44.694Z,70.03
2018-12-21T18:54:15.953Z,69.53
2018-12-21T18:56:58.974Z,69.88
2018-12-21T18:59:29.614Z,69.83
2018-12-21T19:02:00.439Z,69.40
2018-12-21T19:04:30.740Z,68.65
2018-12-21T19:07:00.910Z,69.64
2018-12-21T19:09:31.730Z,69.64
2018-12-21T19:12:02.726Z,69.76
2018-12-21T19:14:34.692Z,70.99
2018-12-21T19:17:05.503Z,70.16
2018-12-21T19:19:35.680Z,71.00
2018-12-21T19:22:05.987Z,70.90
2018-12-21T19:24:36.231Z,71.35
2018-12-21T19:27:07.051Z,71.80
2018-12-21T19:29:37.958Z,72.38
2018-12-21T19:32:08.047Z,72.69
2018-12-21T19:34:38.386Z,73.32
2018-12-21T19:37:08.602Z,74.77
2018-12-21T19:39:38.820Z,75.63
2018-12-21T19:42:09.052Z,76.10
2018-12-21T19:44:39.166Z,76.08
2018-12-21T19:47:09.408Z,76.37
2018-12-21T19:49:39.400Z,76.54
2018-12-21T19:52:10.426Z,75.75
2018-12-21T19:54:40.702Z,75.84
2018-12-21T19:57:13.896Z,75.99
2018-12-21T19:59:44.496Z,77.09
2018-12-21T20:02:15.455Z,76.84
2018-12-21T20:04:45.653Z,76.74
2018-12-21T20:07:15.806Z,77.32
2018-12-21T20:09:46.143Z,78.32
2018-12-21T20:12:17.009Z,79.04
2018-12-21T20:14:47.464Z,78.42
2018-12-21T20:17:18.053Z,78.92
2018-12-21T20:19:48.824Z,78.75
2018-12-21T20:22:18.898Z,79.35
2018-12-21T20:24:48.968Z,79.78
2018-12-21T20:27:20.196Z,80.29
2018-12-21T20:29:51.654Z,80.44
2018-12-21T20:32:22.089Z,80.73
2018-12-21T20:34:53.163Z,80.72
2018-12-21T20:37:23.245Z,80.41
2018-12-21T20:39:53.556Z,79.62
2018-12-21T20:42:23.680Z,79.55
2018-12-21T20:44:54.402Z,79.57
2018-12-21T20:47:24.567Z,79.79
2018-12-21T20:49:55.323Z,79.97
2018-12-21T20:52:27.124Z,80.26
2018-12-21T20:54:57.997Z,80.31
2018-12-21T20:57:30.726Z,79.58
2018-12-21T21:00:01.277Z,79.55
2018-12-21T21:02:32.039Z,79.81
2018-12-21T21:05:02.304Z,79.87
2018-12-21T21:07:33.557Z,79.25
2018-12-21T21:10:03.890Z,79.62
2018-12-21T21:12:34.009Z,79.35
2018-12-21T21:15:04.248Z,79.44
2018-12-21T21:17:34.156Z,79.37
2018-12-21T21:20:05.220Z,80.89
2018-12-21T21:22:35.938Z,80.78
2018-12-21T21:25:06.982Z,81.34
2018-12-21T21:27:38.261Z,82.03
2018-12-21T21:30:14.169Z,81.87
2018-12-21T21:32:44.327Z,82.63
2018-12-21T21:35:15.256Z,82.78
2018-12-21T21:37:46.685Z,83.16
2018-12-21T21:40:19.312Z,84.03
2018-12-21T21:42:57.241Z,84.20
2018-12-21T21:45:22.243Z,85.55
2018-12-21T21:47:53.347Z,85.91
2018-12-21T21:50:23.603Z,86.51
2018-12-21T21:52:54.576Z,86.59
2018-12-21T21:55:25.662Z,88.55
2018-12-21T21:57:56.185Z,88.70
2018-12-21T22:00:27.516Z,88.74
2018-12-21T22:02:58.409Z,88.59
2018-12-21T22:05:29.733Z,88.54
2018-12-21T22:07:59.885Z,88.87
2018-12-21T22:10:29.890Z,89.43
2018-12-21T22:13:00.010Z,89.25
2018-12-21T22:15:30.104Z,88.85
2018-12-21T22:18:00.758Z,88.43
2018-12-21T22:20:32.292Z,87.42
2018-12-21T22:23:02.905Z,87.65
2018-12-21T22:25:33.148Z,87.14
2018-12-21T22:28:03.286Z,87.58
2018-12-21T22:30:33.507Z,87.06
2018-12-21T22:33:04.198Z,86.98
2018-12-21T22:35:34.499Z,86.64
2018-12-21T22:38:04.869Z,86.51
2018-12-21T22:40:36.455Z,87.20
2018-12-21T22:43:07.192Z,87.00
2018-12-21T22:45:37.750Z,86.60
2018-12-21T22:48:08.035Z,87.23
2018-12-21T22:50:38.997Z,86.87
2018-12-21T22:53:09.094Z,87.25
2018-12-21T22:55:39.379Z,87.32
2018-12-21T22:58:09.388Z,86.71
2018-12-21T23:00:39.888Z,86.90
2018-12-21T23:03:10.766Z,86.34
2018-12-21T23:05:42.343Z,87.21
2018-12-21T23:08:13.019Z,86.59
2018-12-21T23:10:44.000Z,86.44
2018-12-21T23:13:15.005Z,86.63
2018-12-21T23:15:45.274Z,86.33
2018-12-21T23:18:15.845Z,86.07
2018-12-21T23:20:46.647Z,86.15
2018-12-21T23:23:17.675Z,85.70
2018-12-21T23:25:48.345Z,86.42
2018-12-21T23:28:18.450Z,86.36
2018-12-21T23:30:48.625Z,86.69
2018-12-21T23:33:19.930Z,87.00
2018-12-21T23:35:50.331Z,86.63
2018-12-21T23:38:21.070Z,86.62
2018-12-21T23:40:51.146Z,86.59
2018-12-21T23:43:21.263Z,86.20
2018-12-21T23:45:51.473Z,85.83
2018-12-21T23:48:21.509Z,86.48
2018-12-21T23:50:51.708Z,85.20
2018-12-21T23:53:21.849Z,85.11
2018-12-21T23:55:52.342Z,84.92
2018-12-21T23:58:23.509Z,84.64
